sensor_id;sensor_type;location;lat;lon;timestamp;P1;durP1;ratioP1;P2;durP2;ratioP2
50549;SDS011;36505;52.512;13.460;2022-07-19T00:00:44;9.32;;;5.80;;
50549;SDS011;36505;52.512;13.460;2022-07-19T00:03:12;11.88;;;5.28;;
50549;SDS011;36505;52.512;13.460;2022-07-19T00:05:38;10.07;;;5.63;;
50549;SDS011;36505;52.512;13.460;2022-07-19T00:08:04;14.57;;;5.20;;
50549;SDS011;36505;52.512;13.460;2022-07-19T00:10:30;13.32;;;6.25;;
50549;SDS011;36505;52.512;13.460;2022-07-19T00:12:55;9.70;;;5.75;;
50549;SDS011;36505;52.512;13.460;2022-07-19T00:15:21;11.27;;;5.88;;
50549;SDS011;36505;52.512;13.460;2022-07-19T00:17:47;10.70;;;5.22;;
50549;SDS011;36505;52.512;13.460;2022-07-19T00:20:15;8.75;;;4.78;;
50549;SDS011;36505;52.512;13.460;2022-07-19T00:22:43;13.20;;;5.10;;
50549;SDS011;36505;52.512;13.460;2022-07-19T00:25:09;10.63;;;5.22;;
50549;SDS011;36505;52.512;13.460;2022-07-19T00:27:35;17.25;;;5.97;;
50549;SDS011;36505;52.512;13.460;2022-07-19T00:30:01;12.10;;;4.88;;
50549;SDS011;36505;52.512;13.460;2022-07-19T00:32:27;10.73;;;4.82;;
50549;SDS011;36505;52.512;13.460;2022-07-19T00:34:52;13.55;;;5.80;;
50549;SDS011;36505;52.512;13.460;2022-07-19T00:37:18;12.32;;;5.53;;
50549;SDS011;36505;52.512;13.460;2022-07-19T00:39:43;10.73;;;5.15;;
50549;SDS011;36505;52.512;13.460;2022-07-19T00:42:09;13.30;;;5.25;;
50549;SDS011;36505;52.512;13.460;2022-07-19T00:44:34;10.57;;;5.18;;
50549;SDS011;36505;52.512;13.460;2022-07-19T00:47:07;9.13;;;5.22;;
50549;SDS011;36505;52.512;13.460;2022-07-19T00:49:32;11.95;;;5.57;;
50549;SDS011;36505;52.512;13.460;2022-07-19T00:51:58;11.15;;;5.50;;
50549;SDS011;36505;52.512;13.460;2022-07-19T00:54:24;14.40;;;5.53;;
50549;SDS011;36505;52.512;13.460;2022-07-19T00:56:50;10.05;;;5.07;;
50549;SDS011;36505;52.512;13.460;2022-07-19T00:59:16;15.63;;;5.18;;
50549;SDS011;36505;52.512;13.460;2022-07-19T01:01:43;10.23;;;5.03;;
50549;SDS011;36505;52.512;13.460;2022-07-19T01:04:08;11.38;;;5.13;;
50549;SDS011;36505;52.512;13.460;2022-07-19T01:06:35;10.90;;;4.80;;
50549;SDS011;36505;52.512;13.460;2022-07-19T01:09:02;13.13;;;5.22;;
50549;SDS011;36505;52.512;13.460;2022-07-19T01:11:28;9.88;;;4.93;;
50549;SDS011;36505;52.512;13.460;2022-07-19T01:13:54;12.00;;;5.07;;
50549;SDS011;36505;52.512;13.460;2022-07-19T01:16:19;11.38;;;5.65;;
50549;SDS011;36505;52.512;13.460;2022-07-19T01:18:44;10.95;;;5.10;;
50549;SDS011;36505;52.512;13.460;2022-07-19T01:21:23;8.38;;;4.75;;
50549;SDS011;36505;52.512;13.460;2022-07-19T01:23:49;9.02;;;5.35;;
50549;SDS011;36505;52.512;13.460;2022-07-19T01:26:15;10.10;;;4.63;;
50549;SDS011;36505;52.512;13.460;2022-07-19T01:28:42;12.98;;;4.93;;
50549;SDS011;36505;52.512;13.460;2022-07-19T01:31:08;10.05;;;4.95;;
50549;SDS011;36505;52.512;13.460;2022-07-19T01:33:43;13.32;;;5.18;;
50549;SDS011;36505;52.512;13.460;2022-07-19T01:36:10;11.70;;;5.65;;
50549;SDS011;36505;52.512;13.460;2022-07-19T01:38:36;7.47;;;4.55;;
50549;SDS011;36505;52.512;13.460;2022-07-19T01:41:02;12.75;;;5.43;;
50549;SDS011;36505;52.512;13.460;2022-07-19T01:43:28;11.73;;;5.47;;
50549;SDS011;36505;52.512;13.460;2022-07-19T01:45:53;9.25;;;5.28;;
50549;SDS011;36505;52.512;13.460;2022-07-19T01:48:22;11.35;;;5.95;;
50549;SDS011;36505;52.512;13.460;2022-07-19T01:50:49;10.27;;;5.43;;
50549;SDS011;36505;52.512;13.460;2022-07-19T01:53:14;8.95;;;4.93;;
50549;SDS011;36505;52.512;13.460;2022-07-19T01:55:39;9.10;;;5.18;;
50549;SDS011;36505;52.512;13.460;2022-07-19T01:58:05;10.63;;;4.85;;
50549;SDS011;36505;52.512;13.460;2022-07-19T02:00:30;10.07;;;5.25;;
50549;SDS011;36505;52.512;13.460;2022-07-19T02:02:56;9.07;;;5.32;;
50549;SDS011;36505;52.512;13.460;2022-07-19T02:05:22;13.02;;;5.13;;
50549;SDS011;36505;52.512;13.460;2022-07-19T02:07:47;16.77;;;5.28;;
50549;SDS011;36505;52.512;13.460;2022-07-19T02:10:13;11.27;;;4.38;;
50549;SDS011;36505;52.512;13.460;2022-07-19T02:12:39;9.77;;;5.00;;
50549;SDS011;36505;52.512;13.460;2022-07-19T02:15:04;9.52;;;5.47;;
50549;SDS011;36505;52.512;13.460;2022-07-19T02:17:31;10.32;;;4.57;;
50549;SDS011;36505;52.512;13.460;2022-07-19T02:19:56;11.63;;;5.25;;
50549;SDS011;36505;52.512;13.460;2022-07-19T02:22:22;7.32;;;4.93;;
50549;SDS011;36505;52.512;13.460;2022-07-19T02:24:47;8.10;;;4.60;;
50549;SDS011;36505;52.512;13.460;2022-07-19T02:27:13;7.30;;;4.75;;
50549;SDS011;36505;52.512;13.460;2022-07-19T02:29:38;13.98;;;4.93;;
50549;SDS011;36505;52.512;13.460;2022-07-19T02:32:04;10.00;;;5.03;;
50549;SDS011;36505;52.512;13.460;2022-07-19T02:34:30;7.85;;;4.50;;
50549;SDS011;36505;52.512;13.460;2022-07-19T02:36:55;9.38;;;4.85;;
50549;SDS011;36505;52.512;13.460;2022-07-19T02:39:21;7.90;;;4.75;;
50549;SDS011;36505;52.512;13.460;2022-07-19T02:41:46;8.88;;;4.95;;
50549;SDS011;36505;52.512;13.460;2022-07-19T02:44:11;10.32;;;4.93;;
50549;SDS011;36505;52.512;13.460;2022-07-19T02:46:37;10.32;;;4.57;;
50549;SDS011;36505;52.512;13.460;2022-07-19T02:49:02;10.25;;;5.30;;
50549;SDS011;36505;52.512;13.460;2022-07-19T02:51:28;7.57;;;4.68;;
50549;SDS011;36505;52.512;13.460;2022-07-19T02:53:53;9.50;;;4.78;;
50549;SDS011;36505;52.512;13.460;2022-07-19T02:56:18;10.10;;;4.75;;
50549;SDS011;36505;52.512;13.460;2022-07-19T02:58:44;9.77;;;5.13;;
50549;SDS011;36505;52.512;13.460;2022-07-19T03:01:09;12.75;;;4.88;;
50549;SDS011;36505;52.512;13.460;2022-07-19T03:03:35;8.05;;;4.28;;
50549;SDS011;36505;52.512;13.460;2022-07-19T03:06:09;9.50;;;4.65;;
50549;SDS011;36505;52.512;13.460;2022-07-19T03:08:36;7.80;;;4.57;;
50549;SDS011;36505;52.512;13.460;2022-07-19T03:11:01;9.68;;;5.32;;
50549;SDS011;36505;52.512;13.460;2022-07-19T03:13:26;9.32;;;4.32;;
50549;SDS011;36505;52.512;13.460;2022-07-19T03:15:52;10.27;;;4.82;;
50549;SDS011;36505;52.512;13.460;2022-07-19T03:18:17;11.25;;;5.13;;
50549;SDS011;36505;52.512;13.460;2022-07-19T03:20:43;11.73;;;4.55;;
50549;SDS011;36505;52.512;13.460;2022-07-19T03:23:08;9.75;;;4.88;;
50549;SDS011;36505;52.512;13.460;2022-07-19T03:25:33;8.52;;;4.47;;
50549;SDS011;36505;52.512;13.460;2022-07-19T03:27:59;8.93;;;4.40;;
50549;SDS011;36505;52.512;13.460;2022-07-19T03:30:24;11.80;;;5.60;;
50549;SDS011;36505;52.512;13.460;2022-07-19T03:32:50;9.77;;;5.05;;
50549;SDS011;36505;52.512;13.460;2022-07-19T03:35:15;10.07;;;4.38;;
50549;SDS011;36505;52.512;13.460;2022-07-19T03:37:40;12.25;;;4.80;;
50549;SDS011;36505;52.512;13.460;2022-07-19T03:40:06;11.43;;;4.63;;
50549;SDS011;36505;52.512;13.460;2022-07-19T03:42:32;9.82;;;4.85;;
50549;SDS011;36505;52.512;13.460;2022-07-19T03:44:57;9.73;;;4.50;;
50549;SDS011;36505;52.512;13.460;2022-07-19T03:47:23;13.00;;;4.45;;
50549;SDS011;36505;52.512;13.460;2022-07-19T03:49:48;7.93;;;4.40;;
50549;SDS011;36505;52.512;13.460;2022-07-19T03:52:14;10.75;;;4.40;;
50549;SDS011;36505;52.512;13.460;2022-07-19T03:54:39;10.52;;;4.50;;
50549;SDS011;36505;52.512;13.460;2022-07-19T03:57:05;7.13;;;4.00;;
50549;SDS011;36505;52.512;13.460;2022-07-19T03:59:30;17.73;;;6.97;;
50549;SDS011;36505;52.512;13.460;2022-07-19T04:01:56;13.65;;;5.18;;
50549;SDS011;36505;52.512;13.460;2022-07-19T04:04:21;14.10;;;5.05;;
50549;SDS011;36505;52.512;13.460;2022-07-19T04:06:46;9.48;;;4.65;;
50549;SDS011;36505;52.512;13.460;2022-07-19T04:09:12;13.07;;;5.68;;
50549;SDS011;36505;52.512;13.460;2022-07-19T04:11:37;8.43;;;4.80;;
50549;SDS011;36505;52.512;13.460;2022-07-19T04:14:03;10.63;;;4.70;;
50549;SDS011;36505;52.512;13.460;2022-07-19T04:16:28;8.75;;;4.18;;
50549;SDS011;36505;52.512;13.460;2022-07-19T04:18:53;7.70;;;4.20;;
50549;SDS011;36505;52.512;13.460;2022-07-19T04:21:19;10.45;;;4.43;;
50549;SDS011;36505;52.512;13.460;2022-07-19T04:23:44;12.13;;;5.45;;
50549;SDS011;36505;52.512;13.460;2022-07-19T04:26:10;7.47;;;4.82;;
50549;SDS011;36505;52.512;13.460;2022-07-19T04:28:35;10.43;;;4.63;;
50549;SDS011;36505;52.512;13.460;2022-07-19T04:31:00;12.70;;;5.47;;
50549;SDS011;36505;52.512;13.460;2022-07-19T04:33:26;12.02;;;4.75;;
50549;SDS011;36505;52.512;13.460;2022-07-19T04:35:51;15.95;;;4.57;;
50549;SDS011;36505;52.512;13.460;2022-07-19T04:38:18;8.80;;;4.90;;
50549;SDS011;36505;52.512;13.460;2022-07-19T04:40:44;12.68;;;4.57;;
50549;SDS011;36505;52.512;13.460;2022-07-19T04:43:10;10.75;;;5.03;;
50549;SDS011;36505;52.512;13.460;2022-07-19T04:45:35;10.43;;;5.80;;
50549;SDS011;36505;52.512;13.460;2022-07-19T04:48:01;13.20;;;5.03;;
50549;SDS011;36505;52.512;13.460;2022-07-19T04:50:26;10.50;;;4.57;;
50549;SDS011;36505;52.512;13.460;2022-07-19T04:52:52;10.38;;;4.60;;
50549;SDS011;36505;52.512;13.460;2022-07-19T04:55:17;15.07;;;5.10;;
50549;SDS011;36505;52.512;13.460;2022-07-19T04:57:43;12.02;;;5.05;;
50549;SDS011;36505;52.512;13.460;2022-07-19T05:00:09;8.38;;;4.90;;
50549;SDS011;36505;52.512;13.460;2022-07-19T05:02:35;11.00;;;4.47;;
50549;SDS011;36505;52.512;13.460;2022-07-19T05:05:02;12.20;;;4.63;;
50549;SDS011;36505;52.512;13.460;2022-07-19T05:07:28;14.98;;;4.82;;
50549;SDS011;36505;52.512;13.460;2022-07-19T05:09:53;8.85;;;4.40;;
50549;SDS011;36505;52.512;13.460;2022-07-19T05:12:19;13.00;;;4.57;;
50549;SDS011;36505;52.512;13.460;2022-07-19T05:14:44;16.00;;;6.25;;
50549;SDS011;36505;52.512;13.460;2022-07-19T05:17:10;10.10;;;4.72;;
50549;SDS011;36505;52.512;13.460;2022-07-19T05:19:35;15.48;;;4.93;;
50549;SDS011;36505;52.512;13.460;2022-07-19T05:22:00;11.32;;;5.22;;
50549;SDS011;36505;52.512;13.460;2022-07-19T05:24:26;10.45;;;5.45;;
50549;SDS011;36505;52.512;13.460;2022-07-19T05:26:51;10.23;;;4.70;;
50549;SDS011;36505;52.512;13.460;2022-07-19T05:29:16;9.15;;;4.72;;
50549;SDS011;36505;52.512;13.460;2022-07-19T05:31:42;11.57;;;4.88;;
50549;SDS011;36505;52.512;13.460;2022-07-19T05:34:07;16.38;;;5.57;;
50549;SDS011;36505;52.512;13.460;2022-07-19T05:36:32;15.30;;;4.85;;
50549;SDS011;36505;52.512;13.460;2022-07-19T05:38:58;10.00;;;5.05;;
50549;SDS011;36505;52.512;13.460;2022-07-19T05:41:23;10.90;;;4.47;;
50549;SDS011;36505;52.512;13.460;2022-07-19T05:43:49;10.80;;;4.97;;
50549;SDS011;36505;52.512;13.460;2022-07-19T05:46:14;10.45;;;5.10;;
50549;SDS011;36505;52.512;13.460;2022-07-19T05:48:40;8.95;;;4.80;;
50549;SDS011;36505;52.512;13.460;2022-07-19T05:51:05;12.30;;;4.80;;
50549;SDS011;36505;52.512;13.460;2022-07-19T05:53:31;13.02;;;4.25;;
50549;SDS011;36505;52.512;13.460;2022-07-19T05:55:56;10.32;;;3.97;;
50549;SDS011;36505;52.512;13.460;2022-07-19T05:58:22;12.05;;;5.43;;
50549;SDS011;36505;52.512;13.460;2022-07-19T06:00:49;15.93;;;5.20;;
50549;SDS011;36505;52.512;13.460;2022-07-19T06:03:33;15.23;;;6.03;;
50549;SDS011;36505;52.512;13.460;2022-07-19T06:05:59;12.38;;;5.03;;
50549;SDS011;36505;52.512;13.460;2022-07-19T06:08:24;11.40;;;4.68;;
50549;SDS011;36505;52.512;13.460;2022-07-19T06:10:52;17.33;;;4.78;;
50549;SDS011;36505;52.512;13.460;2022-07-19T06:13:18;15.50;;;5.75;;
50549;SDS011;36505;52.512;13.460;2022-07-19T06:15:43;16.90;;;4.30;;
50549;SDS011;36505;52.512;13.460;2022-07-19T06:18:09;15.88;;;4.30;;
50549;SDS011;36505;52.512;13.460;2022-07-19T06:20:34;12.57;;;4.25;;
50549;SDS011;36505;52.512;13.460;2022-07-19T06:23:00;12.98;;;3.80;;
50549;SDS011;36505;52.512;13.460;2022-07-19T06:25:25;13.88;;;4.78;;
50549;SDS011;36505;52.512;13.460;2022-07-19T06:27:51;13.02;;;3.40;;
50549;SDS011;36505;52.512;13.460;2022-07-19T06:30:16;12.38;;;3.17;;
50549;SDS011;36505;52.512;13.460;2022-07-19T06:32:42;8.80;;;3.53;;
50549;SDS011;36505;52.512;13.460;2022-07-19T06:35:07;6.53;;;3.47;;
50549;SDS011;36505;52.512;13.460;2022-07-19T06:37:33;9.10;;;3.60;;
50549;SDS011;36505;52.512;13.460;2022-07-19T06:39:58;6.30;;;2.70;;
50549;SDS011;36505;52.512;13.460;2022-07-19T06:42:24;8.80;;;2.70;;
50549;SDS011;36505;52.512;13.460;2022-07-19T06:44:49;13.05;;;3.30;;
50549;SDS011;36505;52.512;13.460;2022-07-19T06:47:14;17.08;;;2.88;;
50549;SDS011;36505;52.512;13.460;2022-07-19T06:49:40;8.32;;;3.05;;
50549;SDS011;36505;52.512;13.460;2022-07-19T06:52:05;10.25;;;3.08;;
50549;SDS011;36505;52.512;13.460;2022-07-19T06:54:31;9.60;;;3.20;;
50549;SDS011;36505;52.512;13.460;2022-07-19T06:56:56;13.52;;;3.25;;
50549;SDS011;36505;52.512;13.460;2022-07-19T06:59:22;8.15;;;3.50;;
50549;SDS011;36505;52.512;13.460;2022-07-19T07:01:47;7.38;;;3.17;;
50549;SDS011;36505;52.512;13.460;2022-07-19T07:04:12;14.38;;;3.00;;
50549;SDS011;36505;52.512;13.460;2022-07-19T07:06:38;8.38;;;3.03;;
50549;SDS011;36505;52.512;13.460;2022-07-19T07:09:03;9.75;;;2.88;;
50549;SDS011;36505;52.512;13.460;2022-07-19T07:11:29;8.05;;;2.75;;
50549;SDS011;36505;52.512;13.460;2022-07-19T07:13:55;8.80;;;2.95;;
50549;SDS011;36505;52.512;13.460;2022-07-19T07:16:21;9.05;;;3.92;;
50549;SDS011;36505;52.512;13.460;2022-07-19T07:18:46;12.13;;;3.03;;
50549;SDS011;36505;52.512;13.460;2022-07-19T07:21:11;10.85;;;2.70;;
50549;SDS011;36505;52.512;13.460;2022-07-19T07:23:37;6.97;;;2.83;;
50549;SDS011;36505;52.512;13.460;2022-07-19T07:26:02;16.92;;;3.58;;
50549;SDS011;36505;52.512;13.460;2022-07-19T07:28:28;10.82;;;3.30;;
50549;SDS011;36505;52.512;13.460;2022-07-19T07:30:53;18.10;;;4.47;;
50549;SDS011;36505;52.512;13.460;2022-07-19T07:33:19;7.63;;;2.78;;
50549;SDS011;36505;52.512;13.460;2022-07-19T07:35:45;9.23;;;2.95;;
50549;SDS011;36505;52.512;13.460;2022-07-19T07:38:10;10.10;;;2.75;;
50549;SDS011;36505;52.512;13.460;2022-07-19T07:40:36;9.73;;;2.77;;
50549;SDS011;36505;52.512;13.460;2022-07-19T07:43:01;7.95;;;2.47;;
50549;SDS011;36505;52.512;13.460;2022-07-19T07:45:28;14.02;;;2.72;;
50549;SDS011;36505;52.512;13.460;2022-07-19T07:47:54;8.55;;;2.40;;
50549;SDS011;36505;52.512;13.460;2022-07-19T07:50:20;11.77;;;2.33;;
50549;SDS011;36505;52.512;13.460;2022-07-19T07:52:45;8.10;;;1.90;;
50549;SDS011;36505;52.512;13.460;2022-07-19T07:55:11;9.52;;;2.28;;
50549;SDS011;36505;52.512;13.460;2022-07-19T07:57:36;10.05;;;2.80;;
50549;SDS011;36505;52.512;13.460;2022-07-19T08:00:03;13.15;;;2.47;;
50549;SDS011;36505;52.512;13.460;2022-07-19T08:02:30;7.45;;;2.33;;
50549;SDS011;36505;52.512;13.460;2022-07-19T08:04:56;6.57;;;2.13;;
50549;SDS011;36505;52.512;13.460;2022-07-19T08:07:21;8.60;;;2.67;;
50549;SDS011;36505;52.512;13.460;2022-07-19T08:09:46;16.55;;;2.78;;
50549;SDS011;36505;52.512;13.460;2022-07-19T08:12:12;7.20;;;2.80;;
50549;SDS011;36505;52.512;13.460;2022-07-19T08:14:37;8.70;;;2.92;;
50549;SDS011;36505;52.512;13.460;2022-07-19T08:17:02;6.97;;;2.33;;
50549;SDS011;36505;52.512;13.460;2022-07-19T08:19:28;13.00;;;2.90;;
50549;SDS011;36505;52.512;13.460;2022-07-19T08:21:53;5.18;;;1.80;;
50549;SDS011;36505;52.512;13.460;2022-07-19T08:24:18;5.53;;;2.10;;
50549;SDS011;36505;52.512;13.460;2022-07-19T08:26:44;15.43;;;2.90;;
50549;SDS011;36505;52.512;13.460;2022-07-19T08:29:09;6.57;;;2.67;;
50549;SDS011;36505;52.512;13.460;2022-07-19T08:31:34;9.10;;;2.55;;
50549;SDS011;36505;52.512;13.460;2022-07-19T08:34:00;7.70;;;2.37;;
50549;SDS011;36505;52.512;13.460;2022-07-19T08:36:25;5.03;;;1.90;;
50549;SDS011;36505;52.512;13.460;2022-07-19T08:38:51;7.88;;;2.85;;
50549;SDS011;36505;52.512;13.460;2022-07-19T08:41:16;7.67;;;1.60;;
50549;SDS011;36505;52.512;13.460;2022-07-19T08:43:42;12.30;;;2.20;;
50549;SDS011;36505;52.512;13.460;2022-07-19T08:46:07;9.63;;;2.92;;
50549;SDS011;36505;52.512;13.460;2022-07-19T08:48:33;5.63;;;2.00;;
50549;SDS011;36505;52.512;13.460;2022-07-19T08:51:01;8.25;;;1.88;;
50549;SDS011;36505;52.512;13.460;2022-07-19T08:53:31;4.47;;;1.60;;
50549;SDS011;36505;52.512;13.460;2022-07-19T08:55:57;9.65;;;2.20;;
50549;SDS011;36505;52.512;13.460;2022-07-19T08:58:24;5.47;;;1.77;;
50549;SDS011;36505;52.512;13.460;2022-07-19T09:00:49;6.47;;;1.85;;
50549;SDS011;36505;52.512;13.460;2022-07-19T09:03:15;8.05;;;2.00;;
50549;SDS011;36505;52.512;13.460;2022-07-19T09:05:40;5.85;;;2.22;;
50549;SDS011;36505;52.512;13.460;2022-07-19T09:10:31;4.87;;;2.37;;
50549;SDS011;36505;52.512;13.460;2022-07-19T09:13:08;11.00;;;1.92;;
50549;SDS011;36505;52.512;13.460;2022-07-19T09:15:36;4.10;;;2.40;;
50549;SDS011;36505;52.512;13.460;2022-07-19T09:18:09;9.20;;;1.95;;
50549;SDS011;36505;52.512;13.460;2022-07-19T09:20:36;7.55;;;1.95;;
50549;SDS011;36505;52.512;13.460;2022-07-19T09:23:03;10.50;;;2.67;;
50549;SDS011;36505;52.512;13.460;2022-07-19T09:26:03;6.15;;;2.10;;
50549;SDS011;36505;52.512;13.460;2022-07-19T09:28:25;8.80;;;3.58;;
50549;SDS011;36505;52.512;13.460;2022-07-19T09:30:53;6.45;;;2.40;;
50549;SDS011;36505;52.512;13.460;2022-07-19T09:33:24;3.47;;;2.00;;
50549;SDS011;36505;52.512;13.460;2022-07-19T09:38:18;3.75;;;1.80;;
50549;SDS011;36505;52.512;13.460;2022-07-19T09:41:08;8.20;;;2.22;;
50549;SDS011;36505;52.512;13.460;2022-07-19T09:46:34;8.52;;;2.08;;
50549;SDS011;36505;52.512;13.460;2022-07-19T09:49:11;9.90;;;2.15;;
50549;SDS011;36505;52.512;13.460;2022-07-19T09:51:39;4.38;;;1.95;;
50549;SDS011;36505;52.512;13.460;2022-07-19T09:54:09;4.10;;;2.73;;
50549;SDS011;36505;52.512;13.460;2022-07-19T09:56:46;5.75;;;2.13;;
50549;SDS011;36505;52.512;13.460;2022-07-19T09:59:15;4.53;;;2.33;;
50549;SDS011;36505;52.512;13.460;2022-07-19T10:01:41;7.80;;;2.78;;
50549;SDS011;36505;52.512;13.460;2022-07-19T10:06:34;8.02;;;2.05;;
50549;SDS011;36505;52.512;13.460;2022-07-19T10:09:04;5.45;;;2.15;;
50549;SDS011;36505;52.512;13.460;2022-07-19T10:11:31;3.83;;;1.80;;
50549;SDS011;36505;52.512;13.460;2022-07-19T10:13:57;4.30;;;2.33;;
50549;SDS011;36505;52.512;13.460;2022-07-19T10:22:02;10.02;;;3.25;;
50549;SDS011;36505;52.512;13.460;2022-07-19T10:24:41;8.07;;;3.28;;
50549;SDS011;36505;52.512;13.460;2022-07-19T10:27:14;6.20;;;4.13;;
50549;SDS011;36505;52.512;13.460;2022-07-19T10:29:41;5.25;;;2.00;;
50549;SDS011;36505;52.512;13.460;2022-07-19T10:32:08;5.88;;;2.60;;
50549;SDS011;36505;52.512;13.460;2022-07-19T10:34:35;4.25;;;2.00;;
50549;SDS011;36505;52.512;13.460;2022-07-19T10:37:01;5.32;;;2.33;;
50549;SDS011;36505;52.512;13.460;2022-07-19T10:39:27;8.18;;;2.40;;
50549;SDS011;36505;52.512;13.460;2022-07-19T10:46:56;4.47;;;2.33;;
50549;SDS011;36505;52.512;13.460;2022-07-19T10:57:41;5.18;;;1.92;;
50549;SDS011;36505;52.512;13.460;2022-07-19T11:02:52;9.75;;;2.83;;
50549;SDS011;36505;52.512;13.460;2022-07-19T11:05:41;10.10;;;3.67;;
50549;SDS011;36505;52.512;13.460;2022-07-19T11:08:10;4.10;;;2.42;;
50549;SDS011;36505;52.512;13.460;2022-07-19T11:10:36;8.25;;;2.83;;
50549;SDS011;36505;52.512;13.460;2022-07-19T11:13:01;9.20;;;2.72;;
50549;SDS011;36505;52.512;13.460;2022-07-19T11:15:27;9.43;;;3.90;;
50549;SDS011;36505;52.512;13.460;2022-07-19T11:17:54;6.72;;;2.65;;
50549;SDS011;36505;52.512;13.460;2022-07-19T11:20:21;8.98;;;2.13;;
50549;SDS011;36505;52.512;13.460;2022-07-19T11:22:48;4.28;;;2.00;;
50549;SDS011;36505;52.512;13.460;2022-07-19T11:25:14;10.00;;;2.30;;
50549;SDS011;36505;52.512;13.460;2022-07-19T11:27:45;4.47;;;2.67;;
50549;SDS011;36505;52.512;13.460;2022-07-19T11:30:13;4.28;;;2.70;;
50549;SDS011;36505;52.512;13.460;2022-07-19T11:32:40;6.97;;;2.30;;
50549;SDS011;36505;52.512;13.460;2022-07-19T11:35:08;8.15;;;2.03;;
50549;SDS011;36505;52.512;13.460;2022-07-19T11:37:36;8.48;;;2.53;;
50549;SDS011;36505;52.512;13.460;2022-07-19T11:40:04;7.47;;;2.22;;
50549;SDS011;36505;52.512;13.460;2022-07-19T11:42:39;6.55;;;2.47;;
50549;SDS011;36505;52.512;13.460;2022-07-19T11:47:35;5.65;;;2.75;;
50549;SDS011;36505;52.512;13.460;2022-07-19T11:50:08;7.20;;;2.30;;
50549;SDS011;36505;52.512;13.460;2022-07-19T11:53:08;9.05;;;2.35;;
50549;SDS011;36505;52.512;13.460;2022-07-19T11:55:28;3.88;;;2.45;;
50549;SDS011;36505;52.512;13.460;2022-07-19T11:58:05;3.92;;;1.92;;
50549;SDS011;36505;52.512;13.460;2022-07-19T12:00:32;3.85;;;2.30;;
50549;SDS011;36505;52.512;13.460;2022-07-19T12:03:03;12.27;;;4.57;;
50549;SDS011;36505;52.512;13.460;2022-07-19T12:05:32;9.90;;;3.83;;
50549;SDS011;36505;52.512;13.460;2022-07-19T12:08:02;7.88;;;2.80;;
50549;SDS011;36505;52.512;13.460;2022-07-19T12:12:59;6.22;;;2.10;;
50549;SDS011;36505;52.512;13.460;2022-07-19T12:15:25;3.08;;;1.75;;
50549;SDS011;36505;52.512;13.460;2022-07-19T12:17:54;6.53;;;2.25;;
50549;SDS011;36505;52.512;13.460;2022-07-19T12:20:21;6.78;;;2.03;;
50549;SDS011;36505;52.512;13.460;2022-07-19T12:22:47;8.85;;;2.80;;
50549;SDS011;36505;52.512;13.460;2022-07-19T12:25:12;7.53;;;2.30;;
50549;SDS011;36505;52.512;13.460;2022-07-19T12:27:38;7.53;;;2.40;;
50549;SDS011;36505;52.512;13.460;2022-07-19T12:30:05;12.55;;;2.85;;
50549;SDS011;36505;52.512;13.460;2022-07-19T12:32:34;4.07;;;2.03;;
50549;SDS011;36505;52.512;13.460;2022-07-19T12:35:11;9.57;;;2.75;;
50549;SDS011;36505;52.512;13.460;2022-07-19T12:37:46;8.82;;;3.22;;
50549;SDS011;36505;52.512;13.460;2022-07-19T12:40:24;6.45;;;2.08;;
50549;SDS011;36505;52.512;13.460;2022-07-19T12:48:12;3.22;;;2.10;;
50549;SDS011;36505;52.512;13.460;2022-07-19T12:50:39;4.55;;;2.40;;
50549;SDS011;36505;52.512;13.460;2022-07-19T12:53:11;3.58;;;2.15;;
50549;SDS011;36505;52.512;13.460;2022-07-19T12:55:39;6.30;;;2.58;;
50549;SDS011;36505;52.512;13.460;2022-07-19T12:58:08;4.10;;;2.80;;
50549;SDS011;36505;52.512;13.460;2022-07-19T13:00:35;6.40;;;2.40;;
50549;SDS011;36505;52.512;13.460;2022-07-19T13:03:02;8.43;;;2.28;;
50549;SDS011;36505;52.512;13.460;2022-07-19T13:05:28;7.72;;;2.72;;
50549;SDS011;36505;52.512;13.460;2022-07-19T13:07:55;11.25;;;2.40;;
50549;SDS011;36505;52.512;13.460;2022-07-19T13:10:22;3.50;;;2.40;;
50549;SDS011;36505;52.512;13.460;2022-07-19T13:12:48;8.45;;;2.58;;
50549;SDS011;36505;52.512;13.460;2022-07-19T13:15:13;8.15;;;2.72;;
50549;SDS011;36505;52.512;13.460;2022-07-19T13:17:39;5.70;;;2.60;;
50549;SDS011;36505;52.512;13.460;2022-07-19T13:20:05;7.32;;;2.70;;
50549;SDS011;36505;52.512;13.460;2022-07-19T13:22:35;6.07;;;2.90;;
50549;SDS011;36505;52.512;13.460;2022-07-19T13:25:02;5.20;;;2.50;;
50549;SDS011;36505;52.512;13.460;2022-07-19T13:27:28;7.55;;;2.95;;
50549;SDS011;36505;52.512;13.460;2022-07-19T13:29:54;8.60;;;2.30;;
50549;SDS011;36505;52.512;13.460;2022-07-19T13:32:19;6.30;;;2.85;;
50549;SDS011;36505;52.512;13.460;2022-07-19T13:34:45;4.55;;;2.70;;
50549;SDS011;36505;52.512;13.460;2022-07-19T13:37:10;7.97;;;3.17;;
50549;SDS011;36505;52.512;13.460;2022-07-19T13:39:35;7.85;;;2.53;;
50549;SDS011;36505;52.512;13.460;2022-07-19T13:42:01;7.22;;;2.60;;
50549;SDS011;36505;52.512;13.460;2022-07-19T13:44:26;5.18;;;2.88;;
50549;SDS011;36505;52.512;13.460;2022-07-19T13:46:52;4.95;;;2.97;;
50549;SDS011;36505;52.512;13.460;2022-07-19T13:49:17;5.15;;;2.40;;
50549;SDS011;36505;52.512;13.460;2022-07-19T13:51:43;5.95;;;2.42;;
50549;SDS011;36505;52.512;13.460;2022-07-19T13:54:08;8.43;;;2.45;;
50549;SDS011;36505;52.512;13.460;2022-07-19T13:56:34;11.40;;;2.63;;
50549;SDS011;36505;52.512;13.460;2022-07-19T13:59:00;5.50;;;2.42;;
50549;SDS011;36505;52.512;13.460;2022-07-19T14:01:26;5.60;;;2.30;;
50549;SDS011;36505;52.512;13.460;2022-07-19T14:03:52;5.60;;;2.08;;
50549;SDS011;36505;52.512;13.460;2022-07-19T14:06:18;7.32;;;2.33;;
50549;SDS011;36505;52.512;13.460;2022-07-19T14:08:43;15.68;;;2.65;;
50549;SDS011;36505;52.512;13.460;2022-07-19T14:11:09;4.35;;;2.00;;
50549;SDS011;36505;52.512;13.460;2022-07-19T14:13:34;6.30;;;2.30;;
50549;SDS011;36505;52.512;13.460;2022-07-19T14:16:00;7.55;;;3.13;;
50549;SDS011;36505;52.512;13.460;2022-07-19T14:18:27;7.88;;;2.55;;
50549;SDS011;36505;52.512;13.460;2022-07-19T14:20:53;3.83;;;2.25;;
50549;SDS011;36505;52.512;13.460;2022-07-19T14:23:18;6.50;;;2.58;;
50549;SDS011;36505;52.512;13.460;2022-07-19T14:25:43;5.50;;;2.58;;
50549;SDS011;36505;52.512;13.460;2022-07-19T14:28:10;7.45;;;3.33;;
50549;SDS011;36505;52.512;13.460;2022-07-19T14:30:38;4.25;;;2.28;;
50549;SDS011;36505;52.512;13.460;2022-07-19T14:33:03;5.05;;;2.22;;
50549;SDS011;36505;52.512;13.460;2022-07-19T14:35:28;6.10;;;2.63;;
50549;SDS011;36505;52.512;13.460;2022-07-19T14:37:55;7.43;;;2.38;;
50549;SDS011;36505;52.512;13.460;2022-07-19T14:40:20;5.30;;;2.63;;
50549;SDS011;36505;52.512;13.460;2022-07-19T14:42:46;5.00;;;2.35;;
50549;SDS011;36505;52.512;13.460;2022-07-19T14:45:11;3.58;;;1.92;;
50549;SDS011;36505;52.512;13.460;2022-07-19T14:47:37;5.85;;;2.38;;
50549;SDS011;36505;52.512;13.460;2022-07-19T14:50:04;14.50;;;2.67;;
50549;SDS011;36505;52.512;13.460;2022-07-19T14:52:31;5.18;;;2.47;;
50549;SDS011;36505;52.512;13.460;2022-07-19T14:54:56;7.68;;;2.50;;
50549;SDS011;36505;52.512;13.460;2022-07-19T14:57:22;4.35;;;2.28;;
50549;SDS011;36505;52.512;13.460;2022-07-19T14:59:48;4.00;;;2.20;;
50549;SDS011;36505;52.512;13.460;2022-07-19T15:02:14;7.28;;;2.40;;
50549;SDS011;36505;52.512;13.460;2022-07-19T15:04:39;4.65;;;2.22;;
50549;SDS011;36505;52.512;13.460;2022-07-19T15:07:05;6.85;;;2.42;;